Time;durP1;ratioP1;P1;durP2;ratioP2;P2;SDS_P1;SDS_P2;PMS_P1;PMS_P2;Temp;Humidity;BMP_temperature;BMP_pressure;BME280_temperature;BME280_humidity;BME280_pressure;Samples;Min_cycle;Max_cycle;Signal;HPM_P1;HPM_P2
2023/03/19 00:00:07;;;;;;;11.48;5.68;;;;;;;;;;5028041;28;20388;-87
2023/03/19 00:02:33;;;;;;;12.05;5.70;;;;;;;;;;5009454;28;20018;-87
2023/03/19 00:04:59;;;;;;;13.95;6.57;;;;;;;;;;5010348;28;20026;-88
2023/03/19 00:07:25;;;;;;;16.75;6.68;;;;;;;;;;5008366;28;20033;-87
2023/03/19 00:09:52;;;;;;;10.55;6.15;;;;;;;;;;5008664;28;20033;-87
2023/03/19 00:12:18;;;;;;;14.10;6.72;;;;;;;;;;5017118;28;20539;-86
2023/03/19 00:14:44;;;;;;;13.50;7.05;;;;;;;;;;5002083;28;20025;-87
2023/03/19 00:17:10;;;;;;;11.55;5.85;;;;;;;;;;5009252;28;20076;-87
2023/03/19 00:19:36;;;;;;;11.30;6.38;;;;;;;;;;5004822;28;20065;-87
2023/03/19 00:22:02;;;;;;;10.05;6.00;;;;;;;;;;5010762;28;20098;-87
2023/03/19 00:24:29;;;;;;;11.10;6.03;;;;;;;;;;5010956;28;20405;-88
2023/03/19 00:26:55;;;;;;;10.02;5.68;;;;;;;;;;5010092;28;20112;-87
2023/03/19 00:29:22;;;;;;;10.73;5.32;;;;;;;;;;5010667;28;20571;-87
2023/03/19 00:31:48;;;;;;;10.65;5.28;;;;;;;;;;5012939;28;20066;-88
2023/03/19 00:34:17;;;;;;;14.70;5.20;;;;;;;;;;5009360;28;20030;-87
2023/03/19 00:36:43;;;;;;;14.07;5.68;;;;;;;;;;5013905;28;20041;-87
2023/03/19 00:39:09;;;;;;;10.43;5.10;;;;;;;;;;5011295;28;20041;-88
2023/03/19 00:41:35;;;;;;;9.75;5.40;;;;;;;;;;5007622;28;20022;-88
2023/03/19 00:44:01;;;;;;;11.48;5.00;;;;;;;;;;5008583;28;20099;-87
2023/03/19 00:46:27;;;;;;;9.55;5.72;;;;;;;;;;5009555;28;20030;-88
2023/03/19 00:48:54;;;;;;;7.93;4.78;;;;;;;;;;5009317;28;20026;-87
2023/03/19 00:51:21;;;;;;;10.88;5.35;;;;;;;;;;5015262;28;20061;-88
2023/03/19 00:53:46;;;;;;;8.38;5.15;;;;;;;;;;5011880;28;20033;-88
2023/03/19 00:56:13;;;;;;;10.60;4.90;;;;;;;;;;5002049;28;20479;-88
2023/03/19 00:58:40;;;;;;;10.00;5.25;;;;;;;;;;4998313;28;20042;-87
2023/03/19 01:01:07;;;;;;;9.55;5.28;;;;;;;;;;5009825;28;20038;-88
2023/03/19 01:03:32;;;;;;;8.82;4.53;;;;;;;;;;5025127;28;20147;-87
2023/03/19 01:05:59;;;;;;;9.13;5.10;;;;;;;;;;5006446;28;20652;-89
2023/03/19 01:08:25;;;;;;;11.45;5.53;;;;;;;;;;5006563;28;20132;-89
2023/03/19 01:10:51;;;;;;;11.80;5.15;;;;;;;;;;5005137;28;20033;-89
2023/03/19 01:13:17;;;;;;;9.05;5.35;;;;;;;;;;5004280;28;20610;-90
2023/03/19 01:15:43;;;;;;;7.93;4.60;;;;;;;;;;5012497;28;20056;-89
2023/03/19 01:18:10;;;;;;;8.95;4.90;;;;;;;;;;5010964;28;20040;-89
2023/03/19 01:20:37;;;;;;;9.48;4.85;;;;;;;;;;5009203;28;20500;-90
2023/03/19 01:23:04;;;;;;;8.48;4.80;;;;;;;;;;5013659;28;20034;-89
2023/03/19 01:25:30;;;;;;;7.50;4.63;;;;;;;;;;5013145;28;20018;-88
2023/03/19 01:27:56;;;;;;;9.82;4.35;;;;;;;;;;5008299;28;20121;-88
2023/03/19 01:30:22;;;;;;;7.32;4.15;;;;;;;;;;5005548;28;20029;-88
2023/03/19 01:32:48;;;;;;;11.90;4.60;;;;;;;;;;5007158;28;20027;-88
2023/03/19 01:35:14;;;;;;;11.52;4.35;;;;;;;;;;5010520;28;20113;-88
2023/03/19 01:37:40;;;;;;;7.13;4.03;;;;;;;;;;5010826;28;20112;-88
2023/03/19 01:40:07;;;;;;;11.02;4.60;;;;;;;;;;5009444;28;20113;-88
2023/03/19 01:42:33;;;;;;;7.85;3.90;;;;;;;;;;5009732;28;20022;-87
2023/03/19 01:45:01;;;;;;;8.82;4.65;;;;;;;;;;5007889;28;20037;-88
2023/03/19 01:47:32;;;;;;;8.77;4.93;;;;;;;;;;5009380;28;20026;-88
2023/03/19 01:49:58;;;;;;;9.15;4.93;;;;;;;;;;5007249;28;20144;-89
2023/03/19 01:52:26;;;;;;;9.27;4.75;;;;;;;;;;5009330;28;20117;-87
2023/03/19 01:54:52;;;;;;;8.98;4.50;;;;;;;;;;5013759;28;20034;-88
2023/03/19 01:57:19;;;;;;;7.85;3.95;;;;;;;;;;5007037;28;20030;-88
2023/03/19 01:59:48;;;;;;;12.23;4.10;;;;;;;;;;5015419;28;20033;-87
2023/03/19 02:02:20;;;;;;;7.93;3.97;;;;;;;;;;5005651;28;20037;-87
2023/03/19 02:04:49;;;;;;;7.50;4.65;;;;;;;;;;5005603;28;20461;-87
2023/03/19 02:07:15;;;;;;;6.93;3.80;;;;;;;;;;5012808;28;20046;-87
2023/03/19 02:09:41;;;;;;;8.38;4.43;;;;;;;;;;5008141;28;20033;-87
2023/03/19 02:12:08;;;;;;;9.00;4.10;;;;;;;;;;5004775;28;20101;-88
2023/03/19 02:14:34;;;;;;;8.75;3.95;;;;;;;;;;5008607;28;20037;-88
2023/03/19 02:17:00;;;;;;;8.63;4.53;;;;;;;;;;5007262;28;20602;-87
2023/03/19 02:20:05;;;;;;;6.00;4.10;;;;;;;;;;5007018;28;20025;-88
2023/03/19 02:22:31;;;;;;;6.47;3.83;;;;;;;;;;4926106;29;20095;-87
2023/03/19 02:25:09;;;;;;;7.32;4.30;;;;;;;;;;4926656;29;20046;-87
2023/03/19 02:27:35;;;;;;;5.93;4.07;;;;;;;;;;4971716;28;20052;-87
2023/03/19 02:30:16;;;;;;;9.52;4.57;;;;;;;;;;5016185;28;20532;-87
2023/03/19 02:32:43;;;;;;;8.25;3.92;;;;;;;;;;4988715;28;20026;-87
2023/03/19 02:35:09;;;;;;;9.52;3.97;;;;;;;;;;5013430;28;20067;-88
2023/03/19 02:37:35;;;;;;;8.88;3.78;;;;;;;;;;5006131;28;20113;-88
2023/03/19 02:40:07;;;;;;;8.77;4.53;;;;;;;;;;5004712;28;20504;-87
2023/03/19 02:42:33;;;;;;;9.15;4.47;;;;;;;;;;5004599;28;20036;-88
2023/03/19 02:44:59;;;;;;;7.13;3.78;;;;;;;;;;5008161;28;20030;-87
2023/03/19 02:47:25;;;;;;;6.43;4.05;;;;;;;;;;4993288;28;20365;-88
2023/03/19 02:49:51;;;;;;;7.25;4.18;;;;;;;;;;5005135;28;20037;-89
2023/03/19 02:52:17;;;;;;;8.68;4.47;;;;;;;;;;5005420;28;20025;-88
2023/03/19 02:54:43;;;;;;;10.10;4.18;;;;;;;;;;5003193;28;20071;-88
2023/03/19 02:57:09;;;;;;;7.35;4.35;;;;;;;;;;5008892;28;20097;-88
2023/03/19 02:59:36;;;;;;;9.50;4.32;;;;;;;;;;5006809;28;20029;-88
2023/03/19 03:02:02;;;;;;;5.40;3.72;;;;;;;;;;5011544;28;20029;-89
2023/03/19 03:04:28;;;;;;;7.53;4.22;;;;;;;;;;5010500;28;20025;-88
2023/03/19 03:06:54;;;;;;;7.72;4.10;;;;;;;;;;5007639;28;20065;-89
2023/03/19 03:09:20;;;;;;;7.00;3.65;;;;;;;;;;5007012;28;20030;-89
2023/03/19 03:11:46;;;;;;;8.32;4.35;;;;;;;;;;5006247;28;20018;-88
2023/03/19 03:14:12;;;;;;;6.65;4.20;;;;;;;;;;5007777;28;20091;-88
2023/03/19 03:16:38;;;;;;;6.47;4.00;;;;;;;;;;4993892;28;20030;-88
2023/03/19 03:19:04;;;;;;;11.63;4.63;;;;;;;;;;5012880;28;20116;-88
2023/03/19 03:21:30;;;;;;;8.50;4.15;;;;;;;;;;5013614;28;20456;-87
2023/03/19 03:23:56;;;;;;;6.55;4.00;;;;;;;;;;4993358;28;20064;-87
2023/03/19 03:26:22;;;;;;;8.73;4.70;;;;;;;;;;4993499;28;20034;-87
2023/03/19 03:28:48;;;;;;;8.65;4.40;;;;;;;;;;5000961;28;20026;-88
2023/03/19 03:31:14;;;;;;;4.57;3.38;;;;;;;;;;5018191;28;20054;-88
2023/03/19 03:33:40;;;;;;;9.10;4.50;;;;;;;;;;5010340;28;20034;-87
2023/03/19 03:36:07;;;;;;;8.88;3.67;;;;;;;;;;5017102;28;20091;-88
2023/03/19 03:38:33;;;;;;;6.97;3.97;;;;;;;;;;5009963;28;20037;-88
2023/03/19 03:40:59;;;;;;;7.65;4.07;;;;;;;;;;5010345;28;20448;-88
2023/03/19 03:43:25;;;;;;;9.93;3.72;;;;;;;;;;5014964;28;20145;-90
2023/03/19 03:45:52;;;;;;;8.60;4.07;;;;;;;;;;5014018;28;20033;-92
2023/03/19 03:48:18;;;;;;;6.32;4.40;;;;;;;;;;5019639;28;20029;-90
2023/03/19 03:50:44;;;;;;;8.05;3.60;;;;;;;;;;5011200;28;20025;-90
2023/03/19 03:53:11;;;;;;;7.60;4.18;;;;;;;;;;5010854;28;20026;-89
2023/03/19 03:55:37;;;;;;;5.28;3.47;;;;;;;;;;5026906;28;20468;-88
2023/03/19 03:58:03;;;;;;;6.53;4.18;;;;;;;;;;5016748;28;20091;-88
2023/03/19 04:00:30;;;;;;;8.63;3.42;;;;;;;;;;5009776;28;20025;-89
2023/03/19 04:02:56;;;;;;;7.43;4.10;;;;;;;;;;5010718;28;20827;-88
2023/03/19 04:05:22;;;;;;;6.07;3.78;;;;;;;;;;5016747;28;20025;-88
2023/03/19 04:07:48;;;;;;;7.07;4.00;;;;;;;;;;5020895;28;20034;-88
2023/03/19 04:10:14;;;;;;;6.45;3.80;;;;;;;;;;5009779;28;20117;-89
2023/03/19 04:12:40;;;;;;;7.18;3.90;;;;;;;;;;5012650;28;20372;-87
2023/03/19 04:15:08;;;;;;;8.13;3.70;;;;;;;;;;5014243;28;20063;-88
2023/03/19 04:17:34;;;;;;;6.13;3.72;;;;;;;;;;5014182;28;20037;-88
2023/03/19 04:20:03;;;;;;;9.20;3.65;;;;;;;;;;4999208;28;20562;-87
2023/03/19 04:22:29;;;;;;;8.02;4.30;;;;;;;;;;5015240;28;20050;-88
2023/03/19 04:24:55;;;;;;;5.90;3.55;;;;;;;;;;5009503;28;20033;-87
2023/03/19 04:27:21;;;;;;;6.35;3.67;;;;;;;;;;5008723;28;20038;-88
2023/03/19 04:29:47;;;;;;;6.32;3.63;;;;;;;;;;5008947;28;20104;-88
2023/03/19 04:32:14;;;;;;;8.50;3.63;;;;;;;;;;5018700;28;20039;-88
2023/03/19 04:34:40;;;;;;;6.40;3.30;;;;;;;;;;5016737;28;20025;-89
2023/03/19 04:37:09;;;;;;;5.97;3.90;;;;;;;;;;5017480;28;20053;-88
2023/03/19 04:39:35;;;;;;;6.05;3.97;;;;;;;;;;5008307;28;20033;-88
2023/03/19 04:42:01;;;;;;;5.78;3.53;;;;;;;;;;5008417;28;20025;-92
2023/03/19 04:44:27;;;;;;;6.43;3.80;;;;;;;;;;5009005;28;20531;-86
2023/03/19 04:46:53;;;;;;;7.43;3.45;;;;;;;;;;5008670;28;20504;-86
2023/03/19 04:49:19;;;;;;;7.15;3.65;;;;;;;;;;5010690;28;20056;-87
2023/03/19 04:51:45;;;;;;;6.57;3.38;;;;;;;;;;5008686;28;20220;-87
2023/03/19 04:54:11;;;;;;;6.38;3.72;;;;;;;;;;4982345;28;20587;-87
2023/03/19 04:56:37;;;;;;;6.20;3.60;;;;;;;;;;5008320;28;20049;-87
2023/03/19 04:59:03;;;;;;;7.68;3.70;;;;;;;;;;5009162;28;20104;-89
2023/03/19 05:01:30;;;;;;;7.15;3.53;;;;;;;;;;5008072;28;20026;-88
2023/03/19 05:03:56;;;;;;;4.50;3.30;;;;;;;;;;5010442;28;20783;-88
2023/03/19 05:06:22;;;;;;;6.10;3.80;;;;;;;;;;5011723;28;20022;-87
2023/03/19 05:08:48;;;;;;;7.05;4.00;;;;;;;;;;5008015;28;20030;-87
2023/03/19 05:11:15;;;;;;;7.13;3.92;;;;;;;;;;5006607;28;20084;-87
2023/03/19 05:13:41;;;;;;;6.07;3.40;;;;;;;;;;5003364;28;20105;-86
2023/03/19 05:16:08;;;;;;;5.47;3.30;;;;;;;;;;5012929;28;20033;-87
2023/03/19 05:18:34;;;;;;;8.15;3.63;;;;;;;;;;5011334;28;20072;-86
2023/03/19 05:21:00;;;;;;;7.30;3.92;;;;;;;;;;5005316;28;20033;-87
2023/03/19 05:23:26;;;;;;;6.35;3.60;;;;;;;;;;5006884;28;20025;-87
2023/03/19 05:25:52;;;;;;;7.50;3.65;;;;;;;;;;5006772;28;20034;-87
2023/03/19 05:28:17;;;;;;;5.43;3.45;;;;;;;;;;5009880;28;20018;-84
2023/03/19 05:30:44;;;;;;;6.00;3.25;;;;;;;;;;5021173;28;20033;-85
2023/03/19 05:33:10;;;;;;;6.47;3.53;;;;;;;;;;5010742;28;20021;-85
2023/03/19 05:35:36;;;;;;;3.72;2.85;;;;;;;;;;5010221;28;20025;-84
2023/03/19 05:38:02;;;;;;;6.10;3.17;;;;;;;;;;5013090;28;20030;-82
2023/03/19 05:40:28;;;;;;;6.07;3.28;;;;;;;;;;5010574;28;20041;-83
2023/03/19 05:42:54;;;;;;;6.15;3.03;;;;;;;;;;5021727;28;20129;-84
2023/03/19 05:45:20;;;;;;;6.90;3.47;;;;;;;;;;5015418;28;20030;-83
2023/03/19 05:47:48;;;;;;;6.32;3.50;;;;;;;;;;5007165;28;20381;-82
2023/03/19 05:50:14;;;;;;;4.82;2.95;;;;;;;;;;5023704;28;20025;-85
2023/03/19 05:52:41;;;;;;;5.57;3.00;;;;;;;;;;5009416;28;20030;-84
2023/03/19 05:55:07;;;;;;;6.63;3.65;;;;;;;;;;5008965;28;20030;-84
2023/03/19 05:57:36;;;;;;;6.10;3.20;;;;;;;;;;5009048;28;20048;-83
2023/03/19 06:00:02;;;;;;;4.85;3.35;;;;;;;;;;5005946;28;20034;-79
2023/03/19 06:02:28;;;;;;;7.63;3.88;;;;;;;;;;5007611;28;20071;-79
2023/03/19 06:04:54;;;;;;;4.78;3.08;;;;;;;;;;5020213;28;20034;-79
2023/03/19 06:07:20;;;;;;;7.40;3.67;;;;;;;;;;5011348;28;20029;-81
2023/03/19 06:09:46;;;;;;;9.13;3.97;;;;;;;;;;5004720;28;20050;-76
2023/03/19 06:12:12;;;;;;;5.93;3.50;;;;;;;;;;5007547;28;20060;-76
2023/03/19 06:14:38;;;;;;;7.93;3.92;;;;;;;;;;5001881;28;20627;-76
2023/03/19 06:17:04;;;;;;;6.95;3.55;;;;;;;;;;5008934;28;20042;-77
2023/03/19 06:19:32;;;;;;;5.72;3.47;;;;;;;;;;5006774;28;20030;-77
2023/03/19 06:21:58;;;;;;;7.30;4.35;;;;;;;;;;5008017;28;20037;-85
2023/03/19 06:24:24;;;;;;;6.13;3.78;;;;;;;;;;5005418;28;20026;-83
2023/03/19 06:26:50;;;;;;;9.27;3.90;;;;;;;;;;5017042;28;20447;-86
2023/03/19 06:29:16;;;;;;;6.78;3.30;;;;;;;;;;5003000;28;20026;-86
2023/03/19 06:31:42;;;;;;;5.97;3.47;;;;;;;;;;4995186;28;20025;-86
2023/03/19 06:34:09;;;;;;;5.65;3.10;;;;;;;;;;4999705;28;20152;-87
2023/03/19 06:36:36;;;;;;;6.43;3.10;;;;;;;;;;5002698;28;20045;-87
2023/03/19 06:39:02;;;;;;;4.78;3.13;;;;;;;;;;5000970;28;20037;-87
2023/03/19 06:41:28;;;;;;;4.30;2.90;;;;;;;;;;5004544;28;20468;-88
2023/03/19 06:43:54;;;;;;;6.13;3.20;;;;;;;;;;5004272;28;20061;-88
2023/03/19 06:46:20;;;;;;;6.13;3.33;;;;;;;;;;5007478;28;20461;-88
2023/03/19 06:48:45;;;;;;;7.15;3.50;;;;;;;;;;5004328;28;20476;-86
2023/03/19 06:51:11;;;;;;;5.22;3.20;;;;;;;;;;5002794;28;20022;-85
2023/03/19 06:53:38;;;;;;;5.53;3.20;;;;;;;;;;5004451;28;20030;-85
2023/03/19 06:56:04;;;;;;;6.22;2.95;;;;;;;;;;5006209;28;20109;-86
2023/03/19 06:58:30;;;;;;;8.38;3.55;;;;;;;;;;5006056;28;20681;-86
2023/03/19 07:00:56;;;;;;;6.75;3.38;;;;;;;;;;5004703;28;20022;-87
2023/03/19 07:03:22;;;;;;;6.90;2.72;;;;;;;;;;5005898;28;20022;-87
2023/03/19 07:05:52;;;;;;;4.22;2.90;;;;;;;;;;5006993;28;20393;-86
2023/03/19 07:08:18;;;;;;;5.22;2.72;;;;;;;;;;5004380;28;20032;-86
2023/03/19 07:10:44;;;;;;;6.45;2.92;;;;;;;;;;5005018;28;20029;-85
2023/03/19 07:13:10;;;;;;;4.68;2.80;;;;;;;;;;5002808;28;20033;-86
2023/03/19 07:15:36;;;;;;;5.72;3.05;;;;;;;;;;5007709;28;20014;-85
2023/03/19 07:18:02;;;;;;;6.00;3.38;;;;;;;;;;5003744;28;20025;-86
2023/03/19 07:20:28;;;;;;;2.72;2.38;;;;;;;;;;5004238;28;20079;-73
2023/03/19 07:22:54;;;;;;;4.35;2.47;;;;;;;;;;5004869;28;20034;-87
2023/03/19 07:25:20;;;;;;;5.10;2.88;;;;;;;;;;5005670;28;20026;-88
2023/03/19 07:27:46;;;;;;;8.30;2.92;;;;;;;;;;5005798;28;20028;-87
2023/03/19 07:30:13;;;;;;;4.28;2.97;;;;;;;;;;4994421;28;20037;-87
2023/03/19 07:32:39;;;;;;;5.10;2.47;;;;;;;;;;4996609;28;20034;-86
2023/03/19 07:35:06;;;;;;;6.82;3.08;;;;;;;;;;4999929;28;20393;-88
2023/03/19 07:37:33;;;;;;;3.17;2.22;;;;;;;;;;4992392;28;20457;-88
2023/03/19 07:39:59;;;;;;;4.60;2.25;;;;;;;;;;4982970;28;20042;-88
2023/03/19 07:42:25;;;;;;;3.63;2.50;;;;;;;;;;5000210;28;20100;-88
2023/03/19 07:44:51;;;;;;;4.63;2.78;;;;;;;;;;4997418;28;20603;-88
2023/03/19 07:47:17;;;;;;;6.10;2.70;;;;;;;;;;4998602;28;20149;-88
2023/03/19 07:49:43;;;;;;;5.05;2.55;;;;;;;;;;4996211;28;20385;-87
2023/03/19 07:52:09;;;;;;;4.70;2.50;;;;;;;;;;4995675;28;20033;-88
2023/03/19 07:54:35;;;;;;;4.68;2.83;;;;;;;;;;4999415;28;20026;-87
2023/03/19 07:57:01;;;;;;;4.18;2.70;;;;;;;;;;4995970;28;20026;-88
2023/03/19 07:59:27;;;;;;;5.00;2.95;;;;;;;;;;4996054;28;20036;-88
2023/03/19 08:01:53;;;;;;;4.63;2.70;;;;;;;;;;4998385;28;20034;-88
2023/03/19 08:04:19;;;;;;;6.60;3.20;;;;;;;;;;4989527;28;20030;-86
2023/03/19 08:06:45;;;;;;;5.53;3.22;;;;;;;;;;4999659;28;20091;-87
2023/03/19 08:09:11;;;;;;;3.30;2.45;;;;;;;;;;5001143;28;20042;-87
2023/03/19 08:11:37;;;;;;;3.90;2.35;;;;;;;;;;5008814;28;20234;-88
2023/03/19 08:14:03;;;;;;;3.15;2.47;;;;;;;;;;4998166;28;20026;-88
2023/03/19 08:16:29;;;;;;;6.68;2.90;;;;;;;;;;4998217;28;20151;-88
2023/03/19 08:18:55;;;;;;;4.47;3.17;;;;;;;;;;4998026;28;20030;-88
2023/03/19 08:21:25;;;;;;;4.63;2.67;;;;;;;;;;4994970;28;20433;-88
2023/03/19 08:23:52;;;;;;;4.97;2.75;;;;;;;;;;5001085;28;20045;-89
2023/03/19 08:26:18;;;;;;;6.45;2.95;;;;;;;;;;5006082;28;20029;-88
2023/03/19 08:28:44;;;;;;;6.50;2.63;;;;;;;;;;4999710;28;20652;-89
2023/03/19 08:31:13;;;;;;;4.20;2.60;;;;;;;;;;5001474;28;20034;-88
2023/03/19 08:33:39;;;;;;;3.30;2.05;;;;;;;;;;4998683;28;20022;-88
2023/03/19 08:36:14;;;;;;;4.47;2.40;;;;;;;;;;4999510;28;20275;-88
2023/03/19 08:38:43;;;;;;;4.68;2.70;;;;;;;;;;4995532;28;20109;-87
2023/03/19 08:41:10;;;;;;;4.78;2.47;;;;;;;;;;5002218;28;20060;-88
2023/03/19 08:43:39;;;;;;;4.63;2.75;;;;;;;;;;5002540;28;20038;-86
2023/03/19 08:46:08;;;;;;;5.40;2.33;;;;;;;;;;5001168;28;20034;-88
2023/03/19 08:48:34;;;;;;;4.15;2.83;;;;;;;;;;5003508;28;20461;-88
2023/03/19 08:51:05;;;;;;;3.50;2.30;;;;;;;;;;4999357;28;20052;-88
2023/03/19 08:53:33;;;;;;;6.35;3.08;;;;;;;;;;5000341;28;20029;-88
2023/03/19 08:56:00;;;;;;;5.90;2.75;;;;;;;;;;5005600;28;20034;-87
2023/03/19 08:58:29;;;;;;;3.90;2.65;;;;;;;;;;5009060;28;20165;-88
2023/03/19 09:01:05;;;;;;;4.47;2.63;;;;;;;;;;5011085;28;20029;-83
2023/03/19 09:03:32;;;;;;;3.35;2.58;;;;;;;;;;4988830;28;20033;-84
2023/03/19 09:05:59;;;;;;;7.10;3.30;;;;;;;;;;4991242;28;20034;-82
2023/03/19 09:08:25;;;;;;;6.78;3.35;;;;;;;;;;5003148;28;20365;-84
2023/03/19 09:10:51;;;;;;;5.03;3.40;;;;;;;;;;5000172;28;20088;-83
2023/03/19 09:13:17;;;;;;;4.53;2.95;;;;;;;;;;4992701;28;20026;-84
2023/03/19 09:15:43;;;;;;;5.53;3.75;;;;;;;;;;5001780;28;20113;-84
2023/03/19 09:18:09;;;;;;;4.88;3.28;;;;;;;;;;5012397;28;20045;-83
2023/03/19 09:20:35;;;;;;;6.57;3.72;;;;;;;;;;4999009;28;20026;-83
2023/03/19 09:23:01;;;;;;;5.35;3.03;;;;;;;;;;4993850;28;20018;-84
2023/03/19 09:25:27;;;;;;;7.07;3.17;;;;;;;;;;4999178;28;20017;-83
2023/03/19 09:27:53;;;;;;;5.32;3.03;;;;;;;;;;4996786;28;20653;-83
2023/03/19 09:30:20;;;;;;;4.53;3.00;;;;;;;;;;5000950;28;20049;-83
2023/03/19 09:32:46;;;;;;;4.22;2.83;;;;;;;;;;5003853;28;20032;-83
2023/03/19 09:35:12;;;;;;;6.78;2.83;;;;;;;;;;5003362;28;20037;-83
2023/03/19 09:37:38;;;;;;;6.72;3.40;;;;;;;;;;4997219;28;20037;-83
2023/03/19 09:40:05;;;;;;;6.63;3.00;;;;;;;;;;5002037;28;20026;-83
2023/03/19 09:42:33;;;;;;;9.00;3.25;;;;;;;;;;5002480;28;20026;-83
2023/03/19 09:44:59;;;;;;;7.30;3.40;;;;;;;;;;4996644;28;20061;-82
2023/03/19 09:47:38;;;;;;;3.38;2.40;;;;;;;;;;5001904;28;20052;-83
2023/03/19 09:50:10;;;;;;;5.10;2.90;;;;;;;;;;4993682;28;20030;-83
2023/03/19 09:52:40;;;;;;;5.25;2.65;;;;;;;;;;5000873;28;20033;-75
2023/03/19 09:55:24;;;;;;;4.88;2.50;;;;;;;;;;4994393;28;20037;-75
2023/03/19 09:57:52;;;;;;;5.40;2.65;;;;;;;;;;4999577;28;20053;-76
2023/03/19 10:00:18;;;;;;;4.20;2.80;;;;;;;;;;5004156;28;20030;-77
2023/03/19 10:02:44;;;;;;;6.20;2.53;;;;;;;;;;5003161;28;20018;-76
2023/03/19 10:05:15;;;;;;;4.07;2.45;;;;;;;;;;4998807;28;20025;-83
2023/03/19 10:07:41;;;;;;;4.93;2.80;;;;;;;;;;4999653;28;20037;-79
2023/03/19 10:10:16;;;;;;;4.45;2.35;;;;;;;;;;5001912;28;20029;-78
2023/03/19 10:12:42;;;;;;;4.55;2.63;;;;;;;;;;4995146;28;20036;-78
2023/03/19 10:15:20;;;;;;;6.45;2.78;;;;;;;;;;5007014;28;20403;-85
2023/03/19 10:17:46;;;;;;;5.32;3.00;;;;;;;;;;4998244;28;20474;-81
2023/03/19 10:20:19;;;;;;;5.10;2.60;;;;;;;;;;4996363;28;20036;-81
2023/03/19 10:22:50;;;;;;;3.28;2.38;;;;;;;;;;4994319;28;20091;-81
2023/03/19 10:25:20;;;;;;;3.53;1.92;;;;;;;;;;5001216;28;20037;-83
2023/03/19 10:27:50;;;;;;;5.53;2.83;;;;;;;;;;5003206;28;20045;-84
2023/03/19 10:30:16;;;;;;;2.72;2.05;;;;;;;;;;4996775;28;20048;-81
2023/03/19 10:32:44;;;;;;;3.35;2.40;;;;;;;;;;4995136;28;20128;-84
2023/03/19 10:35:18;;;;;;;4.40;2.97;;;;;;;;;;5000954;28;20045;-84
2023/03/19 10:37:44;;;;;;;4.53;2.42;;;;;;;;;;5001252;28;20018;-83
2023/03/19 10:40:24;;;;;;;4.75;2.75;;;;;;;;;;5000668;28;20481;-92
2023/03/19 10:42:50;;;;;;;3.55;2.78;;;;;;;;;;5001933;28;20036;-94
2023/03/19 10:45:30;;;;;;;3.53;2.00;;;;;;;;;;5001009;28;20493;-92
2023/03/19 10:47:56;;;;;;;4.05;2.42;;;;;;;;;;5002585;28;20172;-85
2023/03/19 10:50:27;;;;;;;2.10;1.65;;;;;;;;;;4999401;28;20078;-89
2023/03/19 10:53:02;;;;;;;2.40;2.00;;;;;;;;;;4996675;28;20045;-86
2023/03/19 10:55:30;;;;;;;4.43;2.45;;;;;;;;;;4999622;28;20037;-86
2023/03/19 10:58:07;;;;;;;4.72;2.53;;;;;;;;;;4993628;28;20096;-85
2023/03/19 11:00:34;;;;;;;4.78;2.85;;;;;;;;;;5000311;28;20588;-91
2023/03/19 11:03:03;;;;;;;3.53;2.13;;;;;;;;;;4997223;28;20484;-82
2023/03/19 11:05:30;;;;;;;3.17;2.10;;;;;;;;;;4997290;28;20164;-85
2023/03/19 11:08:07;;;;;;;4.38;2.40;;;;;;;;;;4999539;28;20026;-79
2023/03/19 11:10:34;;;;;;;3.42;2.17;;;;;;;;;;4992535;28;20030;-84
2023/03/19 11:13:17;;;;;;;3.42;2.13;;;;;;;;;;5002404;28;20030;-93
2023/03/19 11:15:47;;;;;;;3.17;2.10;;;;;;;;;;4999003;28;20029;-90
2023/03/19 11:18:19;;;;;;;2.88;1.98;;;;;;;;;;5004948;28;20061;-86
2023/03/19 11:20:49;;;;;;;3.53;2.40;;;;;;;;;;4993632;28;20030;-86
2023/03/19 11:23:17;;;;;;;2.65;2.08;;;;;;;;;;4996557;28;20080;-83
2023/03/19 11:25:47;;;;;;;7.10;1.98;;;;;;;;;;4990516;28;20033;-85
2023/03/19 11:28:14;;;;;;;3.72;2.55;;;;;;;;;;4999156;28;20026;-86
2023/03/19 11:30:40;;;;;;;4.75;2.80;;;;;;;;;;5005110;28;20044;-82
2023/03/19 11:33:11;;;;;;;3.85;2.03;;;;;;;;;;5001348;28;20367;-84
2023/03/19 11:35:37;;;;;;;;;;;;;;;;;;5003992;28;20038;-81
2023/03/19 11:38:03;;;;;;;3.38;2.15;;;;;;;;;;5009421;28;20419;-77
2023/03/19 11:40:33;;;;;;;3.35;2.20;;;;;;;;;;5003138;28;20046;-83
2023/03/19 11:42:59;;;;;;;4.90;2.20;;;;;;;;;;4999680;28;20537;-78
2023/03/19 11:45:30;;;;;;;2.78;2.15;;;;;;;;;;5007135;28;20030;-86
2023/03/19 11:47:56;;;;;;;2.85;1.98;;;;;;;;;;4999068;28;20037;-84
2023/03/19 11:50:33;;;;;;;2.92;2.05;;;;;;;;;;5000851;28;20029;-84
2023/03/19 11:52:59;;;;;;;4.65;2.10;;;;;;;;;;5001928;28;20113;-86
2023/03/19 11:55:31;;;;;;;2.97;2.05;;;;;;;;;;5004911;28;20083;-87
2023/03/19 11:58:16;;;;;;;3.03;2.17;;;;;;;;;;4997299;28;20029;-84
2023/03/19 12:00:46;;;;;;;3.60;2.20;;;;;;;;;;4998305;28;20022;-85
2023/03/19 12:03:32;;;;;;;3.72;2.00;;;;;;;;;;5000856;28;20036;-83
2023/03/19 12:06:14;;;;;;;3.65;1.98;;;;;;;;;;5007539;28;20552;-84
2023/03/19 12:08:52;;;;;;;5.45;2.53;;;;;;;;;;5005966;28;20034;-90
2023/03/19 12:11:29;;;;;;;2.17;1.75;;;;;;;;;;4991725;28;20018;-91
2023/03/19 12:14:14;;;;;;;5.70;2.03;;;;;;;;;;4997485;28;20196;-88
2023/03/19 12:16:54;;;;;;;3.33;2.00;;;;;;;;;;4998226;28;20127;-86
2023/03/19 12:19:33;;;;;;;3.38;1.92;;;;;;;;;;4995926;28;20513;-90
2023/03/19 12:22:18;;;;;;;3.30;1.70;;;;;;;;;;4999439;28;20040;-87
2023/03/19 12:25:02;;;;;;;4.10;1.90;;;;;;;;;;4998622;28;20032;-86
2023/03/19 12:27:39;;;;;;;2.55;2.05;;;;;;;;;;4999309;28;20033;-85
2023/03/19 12:30:19;;;;;;;3.00;1.85;;;;;;;;;;4994438;28;20849;-83
2023/03/19 12:32:57;;;;;;;2.80;1.88;;;;;;;;;;5000052;28;20045;-88
2023/03/19 12:35:27;;;;;;;3.00;1.85;;;;;;;;;;4996101;28;20037;-85
2023/03/19 12:38:10;;;;;;;2.88;2.25;;;;;;;;;;4997928;28;20065;-81
2023/03/19 12:40:50;;;;;;;3.55;1.75;;;;;;;;;;4999249;28;20030;-84
2023/03/19 12:43:19;;;;;;;2.70;2.00;;;;;;;;;;5000132;28;20042;-83
2023/03/19 12:45:47;;;;;;;3.10;2.03;;;;;;;;;;5000828;28;20030;-78
2023/03/19 12:48:16;;;;;;;2.65;1.70;;;;;;;;;;4994211;28;20021;-85
2023/03/19 12:50:45;;;;;;;3.78;2.00;;;;;;;;;;5002305;28;20018;-85
2023/03/19 12:53:18;;;;;;;4.82;2.22;;;;;;;;;;4995858;28;20033;-76
2023/03/19 12:55:47;;;;;;;2.83;1.90;;;;;;;;;;4997521;28;20190;-75
2023/03/19 12:58:24;;;;;;;2.40;1.88;;;;;;;;;;4999047;28;20197;-76
2023/03/19 13:01:01;;;;;;;2.25;1.63;;;;;;;;;;4999951;28;20025;-74
2023/03/19 13:03:35;;;;;;;2.65;1.70;;;;;;;;;;4995878;28;20045;-74
2023/03/19 13:06:05;;;;;;;2.35;1.85;;;;;;;;;;5001493;28;20112;-74
2023/03/19 13:08:39;;;;;;;2.55;1.88;;;;;;;;;;4995038;28;20122;-75
2023/03/19 13:11:11;;;;;;;3.85;2.25;;;;;;;;;;4996031;28;20100;-75
2023/03/19 13:13:40;;;;;;;3.08;2.30;;;;;;;;;;5001941;28;20115;-75
2023/03/19 13:16:16;;;;;;;3.47;2.13;;;;;;;;;;4995822;28;20041;-75
2023/03/19 13:18:57;;;;;;;3.47;1.70;;;;;;;;;;4998598;28;20045;-75
2023/03/19 13:21:27;;;;;;;3.15;1.98;;;;;;;;;;4998455;28;20092;-75
2023/03/19 13:24:12;;;;;;;3.95;2.53;;;;;;;;;;4998645;28;20046;-75
2023/03/19 13:26:39;;;;;;;3.20;1.90;;;;;;;;;;5001794;28;20033;-75
2023/03/19 13:29:13;;;;;;;3.70;2.25;;;;;;;;;;4999811;28;20029;-76
2023/03/19 13:31:40;;;;;;;4.22;2.05;;;;;;;;;;4993698;28;20068;-70
2023/03/19 13:34:25;;;;;;;4.28;2.38;;;;;;;;;;4998669;28;20022;-75
2023/03/19 13:37:14;;;;;;;3.70;1.88;;;;;;;;;;4997648;28;20045;-75
2023/03/19 13:39:41;;;;;;;4.25;1.90;;;;;;;;;;4982075;28;20038;-75
2023/03/19 13:42:25;;;;;;;4.47;2.28;;;;;;;;;;4993672;28;20037;-75
2023/03/19 13:44:53;;;;;;;3.47;2.20;;;;;;;;;;4993756;28;20176;-75
2023/03/19 13:47:25;;;;;;;4.45;2.25;;;;;;;;;;5001670;28;20044;-75
2023/03/19 13:50:04;;;;;;;3.55;2.40;;;;;;;;;;4998555;28;20040;-75
2023/03/19 13:52:30;;;;;;;2.70;2.00;;;;;;;;;;4989252;28;20033;-75
2023/03/19 13:55:17;;;;;;;6.75;2.72;;;;;;;;;;4996591;28;20774;-75
2023/03/19 13:58:00;;;;;;;3.75;2.00;;;;;;;;;;5011511;28;20037;-75
2023/03/19 14:00:41;;;;;;;3.30;2.33;;;;;;;;;;4995038;28;20030;-75
2023/03/19 14:03:19;;;;;;;4.35;2.70;;;;;;;;;;4994241;28;20449;-74
2023/03/19 14:05:46;;;;;;;3.45;1.90;;;;;;;;;;4995516;28;20057;-74
2023/03/19 14:08:18;;;;;;;2.53;2.00;;;;;;;;;;4999787;28;20029;-74
2023/03/19 14:10:49;;;;;;;2.47;1.85;;;;;;;;;;5002768;28;20073;-73
2023/03/19 14:13:27;;;;;;;5.35;2.13;;;;;;;;;;4998071;28;20037;-74
2023/03/19 14:16:05;;;;;;;2.13;1.77;;;;;;;;;;5001558;28;20527;-75
2023/03/19 14:18:31;;;;;;;3.40;1.95;;;;;;;;;;4996123;28;20034;-74
2023/03/19 14:21:01;;;;;;;2.80;2.03;;;;;;;;;;4998404;28;20399;-74
2023/03/19 14:23:29;;;;;;;4.18;2.20;;;;;;;;;;4997893;28;20034;-81
2023/03/19 14:26:21;;;;;;;3.10;2.17;;;;;;;;;;5000559;28;20042;-82
2023/03/19 14:28:50;;;;;;;6.60;2.20;;;;;;;;;;4996926;28;20034;-83
2023/03/19 14:31:35;;;;;;;4.28;2.08;;;;;;;;;;5009035;28;20053;-75
2023/03/19 14:34:01;;;;;;;9.10;2.45;;;;;;;;;;5010743;28;20025;-75
2023/03/19 14:36:42;;;;;;;3.47;2.50;;;;;;;;;;5007336;28;20099;-75
2023/03/19 14:39:20;;;;;;;2.45;1.88;;;;;;;;;;5002096;28;20026;-75
2023/03/19 14:41:48;;;;;;;2.80;2.08;;;;;;;;;;4995850;28;20393;-74
2023/03/19 14:44:35;;;;;;;4.18;2.00;;;;;;;;;;5001256;28;20322;-74
2023/03/19 14:47:05;;;;;;;4.85;2.20;;;;;;;;;;4990409;28;20046;-75
2023/03/19 14:49:34;;;;;;;3.03;2.10;;;;;;;;;;5002766;28;20034;-81
2023/03/19 14:52:19;;;;;;;4.63;2.30;;;;;;;;;;5000377;28;20277;-78